createdAt,value
2019-02-25T00:04:20.863Z,22.17
2019-02-25T00:09:29.202Z,22.56
2019-02-25T00:14:37.469Z,22.82
2019-02-25T00:19:45.924Z,22.89
2019-02-25T00:24:54.026Z,22.55
2019-02-25T00:30:02.164Z,22.62
2019-02-25T00:35:10.686Z,22.11
2019-02-25T00:40:18.781Z,22.42
2019-02-25T00:45:27.062Z,22.80
2019-02-25T00:50:35.129Z,23.30
2019-02-25T00:55:43.518Z,23.85
2019-02-25T01:00:51.706Z,23.89
2019-02-25T01:06:00.017Z,22.81
2019-02-25T01:11:08.427Z,23.57
2019-02-25T01:16:16.564Z,23.49
2019-02-25T01:21:25.021Z,23.21
2019-02-25T01:26:33.516Z,23.06
2019-02-25T01:31:41.693Z,23.20
2019-02-25T01:36:49.841Z,23.34
2019-02-25T01:41:58.304Z,22.97
2019-02-25T01:47:06.654Z,23.92
2019-02-25T01:52:14.805Z,22.73
2019-02-25T01:57:22.825Z,22.76
2019-02-25T02:02:30.807Z,22.02
2019-02-25T02:07:38.809Z,21.99
2019-02-25T02:12:46.947Z,22.19
2019-02-25T02:17:55.105Z,22.39
2019-02-25T02:23:03.112Z,22.69
2019-02-25T02:28:11.206Z,22.55
2019-02-25T02:33:19.301Z,21.68
2019-02-25T02:38:27.392Z,22.94
2019-02-25T02:43:35.366Z,22.23
2019-02-25T02:48:43.547Z,22.62
2019-02-25T02:53:51.656Z,21.86
2019-02-25T02:58:59.658Z,21.83
2019-02-25T03:04:07.668Z,22.17
2019-02-25T03:09:15.690Z,21.78
2019-02-25T03:14:23.824Z,21.70
2019-02-25T03:19:31.953Z,21.33
2019-02-25T03:24:39.981Z,22.48
2019-02-25T03:29:48.021Z,22.64
2019-02-25T03:34:56.028Z,22.20
2019-02-25T03:40:04.312Z,21.08
2019-02-25T03:45:12.390Z,21.95
2019-02-25T03:50:20.397Z,22.03
2019-02-25T03:55:28.422Z,22.06
2019-02-25T04:00:36.422Z,21.92
2019-02-25T04:05:44.453Z,21.26
2019-02-25T04:10:52.490Z,24.34
2019-02-25T04:16:00.602Z,22.59
2019-02-25T04:21:08.687Z,22.29
2019-02-25T04:26:17.153Z,21.83
2019-02-25T04:31:25.301Z,22.79
2019-02-25T04:36:33.494Z,22.49
2019-02-25T04:41:41.733Z,22.79
2019-02-25T04:46:49.877Z,22.92
2019-02-25T04:51:57.972Z,21.18
2019-02-25T04:57:06.195Z,21.41
2019-02-25T05:02:14.330Z,20.71
2019-02-25T05:07:22.631Z,21.05
2019-02-25T05:12:30.870Z,21.62
2019-02-25T05:17:39.192Z,21.65
2019-02-25T05:22:47.489Z,20.18
2019-02-25T05:27:55.676Z,21.38
2019-02-25T05:33:04.587Z,21.33
2019-02-25T05:38:12.778Z,21.50
2019-02-25T05:43:21.041Z,20.57
2019-02-25T05:48:29.301Z,21.31
2019-02-25T05:53:37.429Z,20.34
2019-02-25T05:58:45.429Z,22.85
2019-02-25T06:03:53.606Z,21.78
2019-02-25T06:09:01.682Z,21.67
2019-02-25T06:14:09.808Z,22.97
2019-02-25T06:19:18.225Z,23.43
2019-02-25T06:24:26.419Z,23.55
2019-02-25T06:29:34.590Z,24.65
2019-02-25T06:34:42.877Z,25.45
2019-02-25T06:39:51.253Z,23.98
2019-02-25T06:44:59.394Z,24.15
2019-02-25T06:50:07.782Z,23.95
2019-02-25T06:55:15.977Z,22.88
2019-02-25T07:00:24.726Z,23.35
2019-02-25T07:05:33.605Z,22.72
2019-02-25T07:10:41.689Z,22.75
2019-02-25T07:15:49.664Z,23.12
2019-02-25T07:20:57.653Z,23.70
2019-02-25T07:26:06.356Z,22.75
2019-02-25T07:31:14.729Z,22.35
2019-02-25T07:36:22.894Z,22.03
2019-02-25T07:41:31.049Z,22.61
2019-02-25T07:46:39.685Z,23.07
2019-02-25T07:51:48.208Z,22.79
2019-02-25T07:56:56.343Z,23.51
2019-02-25T08:02:04.366Z,22.68
2019-02-25T08:07:12.432Z,23.23
2019-02-25T08:12:20.913Z,23.47
2019-02-25T08:17:29.487Z,23.53
2019-02-25T08:22:38.100Z,23.32
2019-02-25T08:27:46.228Z,23.53
2019-02-25T08:32:54.681Z,23.70
2019-02-25T08:38:03.162Z,23.21
2019-02-25T08:43:11.569Z,24.46
2019-02-25T08:48:20.266Z,24.42
2019-02-25T08:53:29.877Z,23.58
2019-02-25T08:58:35.971Z,24.20
2019-02-25T09:03:44.384Z,23.44
2019-02-25T09:08:52.645Z,23.71
2019-02-25T09:14:01.299Z,24.61
2019-02-25T09:19:09.629Z,24.12
2019-02-25T09:24:17.887Z,24.60
2019-02-25T09:29:26.158Z,24.24
2019-02-25T09:34:34.542Z,24.00
2019-02-25T09:39:43.000Z,23.79
2019-02-25T09:44:51.381Z,23.51
2019-02-25T09:49:59.746Z,23.21
2019-02-25T09:55:08.098Z,23.35
2019-02-25T10:00:16.763Z,24.01
2019-02-25T10:05:23.852Z,25.04
2019-02-25T10:10:32.317Z,25.86
2019-02-25T10:15:40.959Z,28.03
2019-02-25T10:20:49.221Z,29.17
2019-02-25T10:25:57.814Z,26.15
2019-02-25T10:31:06.093Z,25.61
2019-02-25T10:36:14.936Z,24.50
2019-02-25T10:41:23.847Z,24.77
2019-02-25T10:46:30.914Z,24.71
2019-02-25T10:51:40.971Z,23.36
2019-02-25T10:56:47.866Z,23.38
2019-02-25T11:01:54.970Z,23.32
2019-02-25T11:07:05.085Z,24.46
2019-02-25T11:12:11.326Z,24.12
2019-02-25T11:17:20.430Z,22.11
2019-02-25T11:22:26.915Z,21.67
2019-02-25T11:27:35.856Z,21.51
2019-02-25T11:32:42.892Z,20.73
2019-02-25T11:37:52.006Z,18.87
2019-02-25T11:42:58.945Z,18.40
2019-02-25T11:48:07.138Z,19.21
2019-02-25T11:53:15.754Z,18.17
2019-02-25T11:58:24.369Z,16.84
2019-02-25T12:03:32.476Z,16.62
2019-02-25T12:08:41.218Z,17.34
2019-02-25T12:13:49.339Z,16.89
2019-02-25T12:18:57.458Z,18.68
2019-02-25T12:24:05.853Z,18.72
2019-02-25T12:29:14.330Z,19.52
2019-02-25T12:34:22.440Z,18.84
2019-02-25T12:39:30.787Z,17.81
2019-02-25T12:44:38.973Z,17.59
2019-02-25T12:49:47.197Z,19.40
2019-02-25T12:54:55.477Z,18.97
2019-02-25T13:00:03.726Z,17.62
2019-02-25T13:05:11.871Z,18.16
2019-02-25T13:10:20.594Z,15.79
2019-02-25T13:15:28.660Z,16.25
2019-02-25T13:20:36.712Z,16.24
2019-02-25T13:25:44.780Z,16.48
2019-02-25T13:30:52.971Z,15.67
2019-02-25T13:36:01.053Z,16.69
2019-02-25T13:41:09.074Z,15.93
2019-02-25T13:46:17.148Z,16.03
2019-02-25T13:51:25.228Z,15.70
2019-02-25T13:56:33.604Z,16.68
2019-02-25T14:01:42.697Z,15.87
2019-02-25T14:06:51.293Z,16.99
2019-02-25T14:11:59.926Z,16.48
2019-02-25T14:17:08.289Z,16.75
2019-02-25T14:22:16.688Z,17.35
2019-02-25T14:27:24.877Z,17.74
2019-02-25T14:32:34.582Z,16.95
2019-02-25T14:37:43.074Z,16.23
2019-02-25T14:42:44.618Z,16.68
2019-02-25T14:47:49.752Z,16.81
2019-02-25T14:52:56.766Z,17.17
2019-02-25T14:58:06.758Z,17.03
2019-02-25T15:03:11.874Z,18.28
2019-02-25T15:08:21.912Z,18.35
2019-02-25T15:13:30.017Z,18.09
2019-02-25T15:18:35.634Z,18.07
2019-02-25T15:23:43.926Z,18.70
2019-02-25T15:28:56.025Z,17.85
2019-02-25T15:33:59.677Z,16.91
2019-02-25T15:39:07.877Z,16.84
2019-02-25T15:44:16.136Z,17.90
2019-02-25T15:49:25.612Z,18.28
2019-02-25T15:54:32.705Z,19.05
2019-02-25T15:59:37.923Z,21.41
2019-02-25T16:04:46.248Z,19.08
2019-02-25T16:09:54.740Z,20.97
2019-02-25T16:15:01.926Z,20.37
2019-02-25T16:20:10.140Z,20.90
2019-02-25T16:25:18.378Z,21.52
2019-02-25T16:30:30.530Z,23.79
2019-02-25T16:35:35.313Z,22.02
2019-02-25T16:40:41.924Z,23.10
2019-02-25T16:45:50.729Z,21.96
2019-02-25T16:51:00.162Z,23.93
2019-02-25T16:56:07.874Z,24.23
2019-02-25T17:01:14.351Z,24.01
2019-02-25T17:06:22.583Z,24.88
2019-02-25T17:11:30.688Z,24.14
2019-02-25T17:16:39.267Z,24.26
2019-02-25T17:21:47.382Z,24.18
2019-02-25T17:26:55.679Z,25.73
2019-02-25T17:32:04.834Z,23.80
2019-02-25T17:37:14.373Z,24.33
2019-02-25T17:42:22.141Z,25.78
2019-02-25T17:47:32.675Z,23.98
2019-02-25T17:52:39.959Z,25.47
2019-02-25T17:57:46.004Z,25.91
2019-02-25T18:02:55.008Z,24.90
2019-02-25T18:08:02.970Z,25.61
2019-02-25T18:13:10.841Z,27.21
2019-02-25T18:18:17.767Z,27.00
2019-02-25T18:23:23.902Z,26.89
2019-02-25T18:28:32.121Z,27.83
2019-02-25T18:33:39.670Z,28.22
2019-02-25T18:38:48.525Z,28.64
2019-02-25T18:43:55.302Z,27.71
2019-02-25T18:49:05.226Z,28.45
2019-02-25T18:54:11.310Z,28.38
2019-02-25T18:59:20.326Z,28.41
